CYGK

Kingston Norman Rogers Airport

Kingston, Ontario, Canada
METAR CYGK 200400Z 15006KT 3/8SM FG VV002 03/03 A3005 RMK FG8 LAST STFD OBS/NEXT 201100 UTC SLP182
Observed Flight Rules
Feb-20 @ 04:00 UTC (3 hours ago) Instrument Flight Rules
Wind Visibility Clouds Conditions
150° at 6 knots 1/38 miles
  • Vertical visibility at 200' AGL
  • Fog
Temperatures Readings
Current 3°C / 37°F
Dewpoint 3°C / 37°F
Humidity 100%
Altimeter 30.05" Hg
Pressure 1018.2 hPa
Elevation 93
METAR CYGK 200400Z 15006KT 3/8SM FG VV002 03/03 A3005 RMK FG8 LAST STFD OBS/NEXT 201100 UTC SLP182
Observed Flight Rules
Feb-20 @ 04:00 UTC
(3 hours ago)
LIFR
Wind Visibility
150° at 6 knots 1/38 miles
Clouds
  • Vertical visibility at 200' AGL
Conditions
  • Fog
Temperature Dewpoint
3°C / 37°F 3°C / 37°F
Humidity Altimeter Pressure
100% 30.05" Hg 1018.2 hPa